Time;durP1;ratioP1;P1;durP2;ratioP2;P2;SDS_P1;SDS_P2;PMS_P1;PMS_P2;Temp;Humidity;BMP_temperature;BMP_pressure;BME280_temperature;BME280_humidity;BME280_pressure;Samples;Min_cycle;Max_cycle;Signal;HPM_P1;HPM_P2
2021/03/13 00:00:32;;;;;;;15.05;2.80;;;;;;;-145.50;100.00;65435.88;4953011;28;20058;-72
2021/03/13 00:02:58;;;;;;;15.03;3.37;;;;;;;-145.50;100.00;65435.88;4960700;28;20055;-72
2021/03/13 00:05:35;;;;;;;13.50;3.08;;;;;;;-145.50;100.00;65435.88;4958351;28;20728;-72
2021/03/13 00:08:01;;;;;;;18.25;3.05;;;;;;;-145.50;100.00;65435.88;4946440;28;20094;-72
2021/03/13 00:10:27;;;;;;;20.50;3.53;;;;;;;-145.50;100.00;65435.88;4940783;28;20241;-72
2021/03/13 00:12:53;;;;;;;20.80;4.03;;;;;;;-145.50;100.00;65435.88;4955093;28;20460;-72
2021/03/13 00:15:19;;;;;;;10.57;2.15;;;;;;;-145.50;100.00;65435.88;4963810;28;20074;-72
2021/03/13 00:17:48;;;;;;;14.38;2.42;;;;;;;-145.50;100.00;65435.88;4964664;28;20145;-70
2021/03/13 00:20:23;;;;;;;11.23;3.30;;;;;;;-145.50;100.00;65435.88;4960171;28;20117;-70
2021/03/13 00:22:49;;;;;;;12.85;2.72;;;;;;;-145.50;100.00;65435.88;4960500;28;20054;-71
2021/03/13 00:25:17;;;;;;;16.95;3.47;;;;;;;-145.50;100.00;65435.88;4965250;28;20495;-71
2021/03/13 00:27:46;;;;;;;12.60;2.50;;;;;;;-145.50;100.00;65435.88;4955468;28;20487;-70
2021/03/13 00:30:17;;;;;;;10.68;2.60;;;;;;;-145.50;100.00;65435.88;4960709;28;20598;-73
2021/03/13 00:32:44;;;;;;;15.45;2.10;;;;;;;-145.50;100.00;65435.88;4957229;28;20089;-71
2021/03/13 00:35:12;;;;;;;16.30;3.03;;;;;;;-145.50;100.00;65435.88;4945609;28;20170;-71
2021/03/13 00:37:38;;;;;;;18.77;3.40;;;;;;;-145.50;100.00;65435.88;4955732;28;20476;-71
2021/03/13 00:40:07;;;;;;;11.77;2.33;;;;;;;-145.50;100.00;65435.88;4958749;28;20142;-73
2021/03/13 00:42:33;;;;;;;17.50;3.28;;;;;;;-145.50;100.00;65435.88;4951948;28;20510;-70
2021/03/13 00:45:02;;;;;;;11.30;2.28;;;;;;;-145.50;100.00;65435.88;4956134;28;20082;-70
2021/03/13 00:47:28;;;;;;;12.27;2.63;;;;;;;-145.50;100.00;65435.88;4964252;28;20749;-71
2021/03/13 00:49:55;;;;;;;16.95;2.67;;;;;;;-145.50;100.00;65435.88;4958371;28;20062;-71
2021/03/13 00:52:21;;;;;;;8.80;2.15;;;;;;;-145.50;100.00;65435.88;4945182;28;20141;-71
2021/03/13 00:54:47;;;;;;;15.30;2.47;;;;;;;-145.50;100.00;65435.88;4954055;28;20764;-71
2021/03/13 00:57:13;;;;;;;13.73;2.60;;;;;;;-145.50;100.00;65435.88;4959584;28;20130;-71
2021/03/13 00:59:39;;;;;;;11.75;2.28;;;;;;;-145.50;100.00;65435.88;4958752;28;20057;-71
2021/03/13 01:02:06;;;;;;;10.43;2.08;;;;;;;-145.50;100.00;65435.88;4955122;28;20090;-72
2021/03/13 01:04:32;;;;;;;17.90;2.60;;;;;;;-145.50;100.00;65435.88;4946449;28;20554;-71
2021/03/13 01:06:58;;;;;;;12.20;2.10;;;;;;;-145.50;100.00;65435.88;4960542;28;20051;-72
2021/03/13 01:09:24;;;;;;;10.50;2.38;;;;;;;-145.50;100.00;65435.88;4960336;28;20054;-73
2021/03/13 01:11:50;;;;;;;19.23;2.58;;;;;;;-145.50;100.00;65435.88;4947238;28;20812;-71
2021/03/13 01:14:16;;;;;;;14.32;3.08;;;;;;;-145.50;100.00;65435.88;4968557;28;20628;-73
2021/03/13 01:16:42;;;;;;;16.05;2.60;;;;;;;-145.50;100.00;65435.88;4959626;28;20058;-72
2021/03/13 01:19:09;;;;;;;18.23;2.75;;;;;;;-145.50;100.00;65435.88;4966043;28;20153;-72
2021/03/13 01:21:35;;;;;;;13.32;2.70;;;;;;;-145.50;100.00;65435.88;4964789;28;20061;-72
2021/03/13 01:24:01;;;;;;;12.88;2.05;;;;;;;-145.50;100.00;65435.88;4956555;28;20074;-72
2021/03/13 01:26:27;;;;;;;13.25;2.85;;;;;;;-145.50;100.00;65435.88;4961478;28;20086;-72
2021/03/13 01:28:53;;;;;;;15.00;2.75;;;;;;;-145.50;100.00;65435.88;4960392;28;20062;-72
2021/03/13 01:31:19;;;;;;;14.23;3.05;;;;;;;-145.50;100.00;65435.88;4948898;28;20455;-73
2021/03/13 01:33:45;;;;;;;10.57;2.70;;;;;;;-145.50;100.00;65435.88;4958230;28;20054;-73
2021/03/13 01:36:11;;;;;;;11.48;2.50;;;;;;;-145.50;100.00;65435.88;4954789;28;20506;-73
2021/03/13 01:38:37;;;;;;;12.85;2.80;;;;;;;-145.50;100.00;65435.88;4948867;28;20086;-73
2021/03/13 01:41:03;;;;;;;12.13;2.80;;;;;;;-145.50;100.00;65435.88;4948211;28;20061;-73
2021/03/13 01:43:29;;;;;;;10.02;2.67;;;;;;;-145.50;100.00;65435.88;4960355;28;20498;-73
2021/03/13 01:45:55;;;;;;;13.27;3.15;;;;;;;-145.50;100.00;65435.88;4947318;28;20086;-73
2021/03/13 01:48:30;;;;;;;10.10;2.60;;;;;;;-145.50;100.00;65435.88;4965809;28;20065;-73
2021/03/13 01:50:56;;;;;;;8.70;2.47;;;;;;;-145.50;100.00;65435.88;4951579;28;20063;-72
2021/03/13 01:53:22;;;;;;;15.43;3.50;;;;;;;-145.50;100.00;65435.88;4942515;28;20115;-72
2021/03/13 01:55:48;;;;;;;10.75;2.95;;;;;;;-145.50;100.00;65435.88;4943589;28;20055;-72
2021/03/13 01:58:15;;;;;;;20.42;3.70;;;;;;;-145.50;100.00;65435.88;4969813;28;20093;-72
2021/03/13 02:00:48;;;;;;;16.25;3.40;;;;;;;-145.50;100.00;65435.88;4970112;28;20062;-72
2021/03/13 02:03:15;;;;;;;9.93;2.95;;;;;;;-145.50;100.00;65435.88;4962774;28;20062;-72
2021/03/13 02:05:44;;;;;;;11.98;2.75;;;;;;;-145.50;100.00;65435.88;4950622;28;20133;-73
2021/03/13 02:08:15;;;;;;;;;;;;;;;-145.50;100.00;65435.88;4950907;28;20149;-72
2021/03/13 02:11:10;;;;;;;9.75;3.17;;;;;;;-145.50;100.00;65435.88;4955949;28;20001;-73
2021/03/13 02:14:10;;;;;;;9.40;2.60;;;;;;;-145.50;100.00;65435.88;4951670;28;20073;-72
2021/03/13 02:16:51;;;;;;;16.67;3.75;;;;;;;-145.50;100.00;65435.88;4958290;28;20472;-73
2021/03/13 02:19:55;;;;;;;14.30;3.00;;;;;;;-145.50;100.00;65435.88;4959930;28;20051;-73
2021/03/13 02:22:23;;;;;;;7.85;2.72;;;;;;;-145.50;100.00;65435.88;4968235;28;20499;-73
2021/03/13 02:25:00;;;;;;;10.20;2.60;;;;;;;-145.50;100.00;65435.88;4945954;28;20086;-73
2021/03/13 02:27:30;;;;;;;14.40;3.70;;;;;;;-145.50;100.00;65435.88;4969501;28;20141;-72
2021/03/13 02:30:04;;;;;;;14.10;3.33;;;;;;;-145.50;100.00;65435.88;4963254;28;20133;-72
2021/03/13 02:33:01;;;;;;;7.63;3.00;;;;;;;-145.50;100.00;65435.88;4954605;28;20134;-72
2021/03/13 02:35:32;;;;;;;12.48;3.92;;;;;;;-145.50;100.00;65435.88;4948312;28;20058;-72
2021/03/13 02:38:07;;;;;;;9.15;3.83;;;;;;;-145.50;100.00;65435.88;4966399;28;20086;-72
2021/03/13 02:40:37;;;;;;;13.75;3.63;;;;;;;-145.50;100.00;65435.88;4956750;28;20472;-72
2021/03/13 02:43:07;;;;;;;13.32;4.38;;;;;;;-145.50;100.00;65435.88;4958603;28;20070;-73
2021/03/13 02:45:38;;;;;;;12.48;4.90;;;;;;;-145.50;100.00;65435.88;4951415;28;20058;-72
2021/03/13 02:48:08;;;;;;;9.40;3.33;;;;;;;-145.50;100.00;65435.88;4958695;28;20109;-72
2021/03/13 02:50:36;;;;;;;8.40;4.18;;;;;;;-145.50;100.00;65435.88;4967165;28;20054;-72
2021/03/13 02:53:04;;;;;;;7.40;3.57;;;;;;;-145.50;100.00;65435.88;4960327;28;20093;-72
2021/03/13 02:55:30;;;;;;;8.63;4.07;;;;;;;-145.50;100.00;65435.88;4967817;28;20574;-72
2021/03/13 02:57:59;;;;;;;8.27;3.50;;;;;;;-145.50;100.00;65435.88;4944999;28;20480;-73
2021/03/13 03:00:29;;;;;;;6.13;2.83;;;;;;;-145.50;100.00;65435.88;4963850;28;20090;-73
2021/03/13 03:02:57;;;;;;;13.65;4.13;;;;;;;-145.50;100.00;65435.88;4959048;28;20063;-73
2021/03/13 03:05:25;;;;;;;13.60;4.07;;;;;;;-145.50;100.00;65435.88;4967525;28;20066;-73
2021/03/13 03:07:53;;;;;;;12.25;3.42;;;;;;;-145.50;100.00;65435.88;4967967;28;20166;-72
2021/03/13 03:10:21;;;;;;;7.13;3.80;;;;;;;-145.50;100.00;65435.88;4960181;28;20228;-72
2021/03/13 03:12:49;;;;;;;10.65;3.42;;;;;;;-145.50;100.00;65435.88;4947304;28;20117;-72
2021/03/13 03:15:20;;;;;;;8.07;3.05;;;;;;;-145.50;100.00;65435.88;4961076;28;20058;-72
2021/03/13 03:17:47;;;;;;;8.32;3.53;;;;;;;-145.50;100.00;65435.88;4967487;28;20138;-72
2021/03/13 03:20:14;;;;;;;9.93;3.30;;;;;;;-145.50;100.00;65435.88;4962090;28;20166;-72
2021/03/13 03:22:40;;;;;;;6.47;3.17;;;;;;;-145.50;100.00;65435.88;4949528;28;20062;-72
2021/03/13 03:25:08;;;;;;;8.95;3.30;;;;;;;-145.50;100.00;65435.88;4962400;28;20300;-72
2021/03/13 03:27:49;;;;;;;9.60;3.53;;;;;;;-145.50;100.00;65435.88;4964019;28;20860;-72
2021/03/13 03:30:28;;;;;;;7.93;3.90;;;;;;;-145.50;100.00;65435.88;4944535;28;20050;-72
2021/03/13 03:32:55;;;;;;;9.13;3.42;;;;;;;-145.50;100.00;65435.88;4966579;28;20062;-72
2021/03/13 03:35:22;;;;;;;9.13;3.40;;;;;;;-145.50;100.00;65435.88;4957047;28;20076;-72
2021/03/13 03:37:50;;;;;;;8.95;2.75;;;;;;;-145.50;100.00;65435.88;4961788;28;20054;-72
2021/03/13 03:40:18;;;;;;;6.18;3.47;;;;;;;-145.50;100.00;65435.88;4967158;28;20574;-72
2021/03/13 03:42:49;;;;;;;8.47;2.77;;;;;;;-145.50;100.00;65435.88;4962012;28;20058;-72
2021/03/13 03:45:20;;;;;;;9.38;3.35;;;;;;;-145.50;100.00;65435.88;4971765;28;20089;-72
2021/03/13 03:47:48;;;;;;;11.30;2.90;;;;;;;-145.50;100.00;65435.88;4955638;28;20086;-72
2021/03/13 03:50:16;;;;;;;7.80;2.83;;;;;;;-145.50;100.00;65435.88;4973943;28;20058;-72
2021/03/13 03:52:46;;;;;;;5.85;2.10;;;;;;;-145.50;100.00;65435.88;4959280;28;20059;-72
2021/03/13 03:55:15;;;;;;;8.90;3.13;;;;;;;-145.50;100.00;65435.88;4946108;28;20074;-72
2021/03/13 03:57:42;;;;;;;8.32;2.25;;;;;;;-145.50;100.00;65435.88;4964019;28;20086;-72
2021/03/13 04:00:09;;;;;;;6.72;2.55;;;;;;;-145.50;100.00;65435.88;4944225;28;20082;-72
2021/03/13 04:02:57;;;;;;;6.03;2.60;;;;;;;-145.50;100.00;65435.88;4950940;28;20054;-72
2021/03/13 04:05:24;;;;;;;9.15;2.60;;;;;;;-145.50;100.00;65435.88;4961230;28;20434;-72
2021/03/13 04:07:52;;;;;;;7.22;2.50;;;;;;;-145.50;100.00;65435.88;4965932;28;20050;-72
2021/03/13 04:10:18;;;;;;;10.43;3.58;;;;;;;-145.50;100.00;65435.88;4937703;28;20086;-72
2021/03/13 04:12:46;;;;;;;7.00;2.60;;;;;;;-145.50;100.00;65435.88;4965518;28;20113;-72
2021/03/13 04:15:14;;;;;;;9.43;2.93;;;;;;;-145.50;100.00;65435.88;4971927;28;20137;-72
2021/03/13 04:17:40;;;;;;;8.77;2.63;;;;;;;-145.50;100.00;65435.88;4965467;28;20320;-72
2021/03/13 04:20:08;;;;;;;8.38;2.88;;;;;;;-145.50;100.00;65435.88;4953937;28;20399;-72
2021/03/13 04:22:36;;;;;;;7.87;2.50;;;;;;;-145.50;100.00;65435.88;4956393;28;20471;-72
2021/03/13 04:25:07;;;;;;;6.50;2.83;;;;;;;-145.50;100.00;65435.88;4963056;28;20387;-72
2021/03/13 04:27:34;;;;;;;10.05;2.72;;;;;;;-145.50;100.00;65435.88;4959743;28;20716;-72
2021/03/13 04:30:01;;;;;;;9.90;2.53;;;;;;;-145.50;100.00;65435.88;4963281;28;20149;-72
2021/03/13 04:32:27;;;;;;;5.55;2.47;;;;;;;-145.50;100.00;65435.88;4952767;28;20495;-72
2021/03/13 04:34:55;;;;;;;6.65;2.90;;;;;;;-145.50;100.00;65435.88;4945493;28;20566;-72
2021/03/13 04:37:22;;;;;;;9.05;2.80;;;;;;;-145.50;100.00;65435.88;4949787;28;20105;-72
2021/03/13 04:39:49;;;;;;;6.97;3.05;;;;;;;-145.50;100.00;65435.88;4959355;28;20141;-72
2021/03/13 04:42:16;;;;;;;9.00;2.50;;;;;;;-145.50;100.00;65435.88;4953780;28;20508;-72
2021/03/13 04:44:43;;;;;;;6.40;2.42;;;;;;;-145.50;100.00;65435.88;4967379;28;20511;-72
2021/03/13 04:47:09;;;;;;;9.60;3.47;;;;;;;-145.50;100.00;65435.88;4948623;28;20091;-72
2021/03/13 04:49:36;;;;;;;5.72;2.38;;;;;;;-145.50;100.00;65435.88;4951166;28;20666;-72
2021/03/13 04:52:03;;;;;;;8.82;2.70;;;;;;;-145.50;100.00;65435.88;4960237;28;20164;-72
2021/03/13 04:54:29;;;;;;;9.10;2.47;;;;;;;-145.50;100.00;65435.88;4957750;28;20066;-72
2021/03/13 04:56:55;;;;;;;7.32;2.97;;;;;;;-145.50;100.00;65435.88;4952270;28;20934;-72
2021/03/13 04:59:22;;;;;;;8.02;2.78;;;;;;;-145.50;100.00;65435.88;4966584;28;20069;-72
2021/03/13 05:01:48;;;;;;;7.95;2.70;;;;;;;-145.50;100.00;65435.88;4958923;28;20063;-72
2021/03/13 05:04:14;;;;;;;4.80;2.67;;;;;;;-145.50;100.00;65435.88;4952838;28;20057;-72
2021/03/13 05:06:41;;;;;;;8.43;2.63;;;;;;;-145.50;100.00;65435.88;4952310;28;20138;-72
2021/03/13 05:09:07;;;;;;;7.00;2.90;;;;;;;-145.50;100.00;65435.88;4960862;28;20058;-72
2021/03/13 05:11:34;;;;;;;5.35;2.63;;;;;;;-145.50;100.00;65435.88;4948609;28;20062;-72
2021/03/13 05:14:03;;;;;;;9.80;2.95;;;;;;;-145.50;100.00;65435.88;4971796;28;20082;-72
2021/03/13 05:16:29;;;;;;;5.57;1.90;;;;;;;-145.50;100.00;65435.88;4965691;28;20065;-72
2021/03/13 05:18:55;;;;;;;9.48;2.88;;;;;;;-145.50;100.00;65435.88;4956370;28;20093;-72
2021/03/13 05:21:22;;;;;;;10.50;3.97;;;;;;;-145.50;100.00;65435.88;4944448;28;20061;-71
2021/03/13 05:23:49;;;;;;;7.03;2.65;;;;;;;-145.50;100.00;65435.88;4958920;28;20082;-72
2021/03/13 05:26:15;;;;;;;6.57;2.60;;;;;;;-145.50;100.00;65435.88;4965815;28;20058;-72
2021/03/13 05:28:41;;;;;;;4.78;1.75;;;;;;;-145.50;100.00;65435.88;4942748;28;20768;-72
2021/03/13 05:31:07;;;;;;;6.35;2.22;;;;;;;-145.50;100.00;65435.88;4948580;28;20487;-72
2021/03/13 05:33:34;;;;;;;8.60;2.10;;;;;;;-145.50;100.00;65435.88;4954516;28;20368;-72
2021/03/13 05:35:59;;;;;;;6.43;2.05;;;;;;;-145.50;100.00;65435.88;4953975;28;20065;-72
2021/03/13 05:38:25;;;;;;;9.45;2.63;;;;;;;-145.50;100.00;65435.88;4956358;28;20407;-72
2021/03/13 05:40:52;;;;;;;7.00;2.00;;;;;;;-145.50;100.00;65435.88;4959373;28;20438;-72
2021/03/13 05:43:20;;;;;;;4.88;2.50;;;;;;;-145.50;100.00;65435.88;4957278;28;20565;-72
2021/03/13 05:45:46;;;;;;;6.30;2.33;;;;;;;-145.50;100.00;65435.88;4959276;28;20497;-73
2021/03/13 05:48:13;;;;;;;7.68;1.75;;;;;;;-145.50;100.00;65435.88;4961642;28;20098;-72
2021/03/13 05:50:39;;;;;;;5.40;2.08;;;;;;;-145.50;100.00;65435.88;4959018;28;20755;-72
2021/03/13 05:53:10;;;;;;;6.63;1.85;;;;;;;-145.50;100.00;65435.88;4965323;28;20067;-73
2021/03/13 05:55:38;;;;;;;7.88;2.10;;;;;;;-145.50;100.00;65435.88;4961460;28;20133;-72
2021/03/13 05:58:06;;;;;;;5.32;1.77;;;;;;;-145.50;100.00;65435.88;4964624;28;20054;-72
2021/03/13 06:00:35;;;;;;;7.00;1.88;;;;;;;-145.50;100.00;65435.88;4959167;28;20129;-72
2021/03/13 06:03:01;;;;;;;6.72;2.13;;;;;;;-145.50;100.00;65435.88;4958174;28;20062;-72
2021/03/13 06:05:28;;;;;;;7.43;1.90;;;;;;;-145.50;100.00;65435.88;4964802;28;20082;-72
2021/03/13 06:07:55;;;;;;;8.88;2.30;;;;;;;-145.50;100.00;65435.88;4958688;28;20165;-72
2021/03/13 06:10:22;;;;;;;6.03;2.03;;;;;;;-145.50;100.00;65435.88;4965801;28;20467;-73
2021/03/13 06:12:48;;;;;;;8.85;2.25;;;;;;;-145.50;100.00;65435.88;4934021;28;20059;-72
2021/03/13 06:15:15;;;;;;;7.22;2.10;;;;;;;-145.50;100.00;65435.88;4971015;28;20269;-73
2021/03/13 06:17:54;;;;;;;7.45;1.83;;;;;;;-145.50;100.00;65435.88;4964284;28;20467;-73
2021/03/13 06:20:35;;;;;;;7.07;1.80;;;;;;;-145.50;100.00;65435.88;4959851;28;20161;-72
2021/03/13 06:23:07;;;;;;;19.20;2.28;;;;;;;-145.50;100.00;65435.88;4947102;28;20121;-71
2021/03/13 06:25:34;;;;;;;3.22;1.25;;;;;;;-145.50;100.00;65435.88;4957223;28;20055;-72
2021/03/13 06:28:18;;;;;;;2.92;0.75;;;;;;;-145.50;100.00;65435.88;4946220;28;20087;-73
2021/03/13 06:30:45;;;;;;;1.25;0.38;;;;;;;-145.50;100.00;65435.88;4959110;28;20554;-72
2021/03/13 06:33:29;;;;;;;4.13;0.60;;;;;;;-145.50;100.00;65435.88;4950070;28;20118;-72
2021/03/13 06:36:08;;;;;;;5.68;1.90;;;;;;;-145.50;100.00;65435.88;4958018;28;20065;-73
2021/03/13 06:38:35;;;;;;;10.02;1.88;;;;;;;-145.50;100.00;65435.88;4962911;28;20739;-73
2021/03/13 06:41:18;;;;;;;5.68;1.63;;;;;;;-145.50;100.00;65435.88;4948332;28;20058;-73
2021/03/13 06:43:46;;;;;;;3.70;1.38;;;;;;;-145.50;100.00;65435.88;4960463;28;20796;-73
2021/03/13 06:46:17;;;;;;;3.33;1.00;;;;;;;-145.50;100.00;65435.88;4960021;28;20066;-73
2021/03/13 06:48:45;;;;;;;9.32;1.50;;;;;;;-145.50;100.00;65435.88;4951435;28;20066;-73
2021/03/13 06:51:32;;;;;;;3.60;1.30;;;;;;;-145.50;100.00;65435.88;4948689;28;20360;-73
2021/03/13 06:54:08;;;;;;;2.35;0.75;;;;;;;-145.50;100.00;65435.88;4958131;28;20112;-73
2021/03/13 06:56:45;;;;;;;3.22;1.15;;;;;;;-145.50;100.00;65435.88;4963882;28;20066;-73
2021/03/13 06:59:30;;;;;;;2.67;0.85;;;;;;;-145.50;100.00;65435.88;4944089;28;20215;-72
2021/03/13 07:01:58;;;;;;;4.20;1.00;;;;;;;-145.50;100.00;65435.88;4967388;28;20145;-72
2021/03/13 07:04:29;;;;;;;2.47;0.97;;;;;;;-145.50;100.00;65435.88;4926976;28;20597;-72
2021/03/13 07:06:56;;;;;;;3.45;0.80;;;;;;;-145.50;100.00;65435.88;4961826;28;20192;-73
2021/03/13 07:09:48;;;;;;;2.03;0.65;;;;;;;-145.50;100.00;65435.88;4932706;28;20111;-72
2021/03/13 07:12:41;;;;;;;6.45;1.30;;;;;;;-145.50;100.00;65435.88;4950092;28;20529;-72
2021/03/13 07:15:13;;;;;;;6.28;0.82;;;;;;;-145.50;100.00;65435.88;4966925;28;20142;-72
2021/03/13 07:17:51;;;;;;;4.70;0.82;;;;;;;-145.50;100.00;65435.88;4968104;28;20058;-72
2021/03/13 07:20:26;;;;;;;6.28;0.98;;;;;;;-145.50;100.00;65435.88;4940829;28;20110;-73
2021/03/13 07:22:54;;;;;;;6.32;0.82;;;;;;;-145.50;100.00;65435.88;4957750;28;20144;-72
2021/03/13 07:25:23;;;;;;;4.97;0.88;;;;;;;-145.50;100.00;65435.88;4959385;28;20157;-73
2021/03/13 07:27:57;;;;;;;7.38;1.38;;;;;;;-145.50;100.00;65435.88;4966876;28;20058;-72
2021/03/13 07:30:24;;;;;;;8.80;0.90;;;;;;;-145.50;100.00;65435.88;4964292;28;20063;-72
2021/03/13 07:32:58;;;;;;;7.15;1.60;;;;;;;-145.50;100.00;65435.88;4955538;28;20082;-72
2021/03/13 07:35:39;;;;;;;7.35;1.23;;;;;;;-145.50;100.00;65435.88;4953876;28;20054;-72
2021/03/13 07:38:10;;;;;;;10.75;1.38;;;;;;;-145.50;100.00;65435.88;4958201;28;20069;-72
2021/03/13 07:40:42;;;;;;;8.68;1.00;;;;;;;-145.50;100.00;65435.88;4958960;28;20061;-72
2021/03/13 07:43:11;;;;;;;7.50;1.17;;;;;;;-145.50;100.00;65435.88;4960050;28;20058;-72
2021/03/13 07:45:39;;;;;;;10.00;2.25;;;;;;;-145.50;100.00;65435.88;4966117;28;20405;-72
2021/03/13 07:48:08;;;;;;;5.88;0.98;;;;;;;-145.50;100.00;65435.88;4961581;28;20082;-72
2021/03/13 07:50:34;;;;;;;11.00;1.70;;;;;;;-145.50;100.00;65435.88;4960682;28;20405;-73
2021/03/13 07:53:01;;;;;;;9.45;2.65;;;;;;;-145.50;100.00;65435.88;4955915;28;20065;-72
2021/03/13 07:55:29;;;;;;;9.73;1.85;;;;;;;-145.50;100.00;65435.88;4964587;28;20115;-73
2021/03/13 07:57:55;;;;;;;9.30;2.00;;;;;;;-145.50;100.00;65435.88;4965887;28;20479;-73
2021/03/13 08:00:42;;;;;;;15.43;2.25;;;;;;;-145.50;100.00;65435.88;4960561;28;20136;-73
2021/03/13 08:03:28;;;;;;;15.95;2.45;;;;;;;-145.50;100.00;65435.88;4958003;28;20816;-72
2021/03/13 08:06:00;;;;;;;14.50;2.30;;;;;;;-145.50;100.00;65435.88;4956122;28;20443;-73
2021/03/13 08:08:46;;;;;;;15.55;2.08;;;;;;;-145.50;100.00;65435.88;4966294;28;20051;-73
2021/03/13 08:11:14;;;;;;;15.45;2.95;;;;;;;-145.50;100.00;65435.88;4954880;28;20059;-73
2021/03/13 08:13:40;;;;;;;11.60;2.03;;;;;;;-145.50;100.00;65435.88;4965324;28;20442;-73
2021/03/13 08:16:42;;;;;;;11.98;2.10;;;;;;;-145.50;100.00;65435.88;4950543;28;20051;-72
2021/03/13 08:19:44;;;;;;;16.52;2.35;;;;;;;-145.50;100.00;65435.88;4962490;28;20165;-72
2021/03/13 08:22:16;;;;;;;22.20;2.95;;;;;;;-145.50;100.00;65435.88;4946912;28;20160;-72
2021/03/13 08:24:48;;;;;;;14.13;1.95;;;;;;;-145.50;100.00;65435.88;4966585;28;21059;-72
2021/03/13 08:27:17;;;;;;;19.13;3.20;;;;;;;-145.50;100.00;65435.88;4960662;28;20062;-72
2021/03/13 08:30:15;;;;;;;16.95;2.28;;;;;;;-145.50;100.00;65435.88;4966731;28;21013;-72
2021/03/13 08:33:05;;;;;;;16.33;2.65;;;;;;;-145.50;100.00;65435.88;4949989;28;20554;-72
2021/03/13 08:35:48;;;;;;;10.98;1.80;;;;;;;-145.50;100.00;65435.88;4962321;28;20492;-72
2021/03/13 08:38:18;;;;;;;18.58;2.70;;;;;;;-145.50;100.00;65435.88;4949447;28;20113;-73
2021/03/13 08:40:47;;;;;;;15.43;2.38;;;;;;;-145.50;100.00;65435.88;4952903;28;20094;-74
2021/03/13 08:43:40;;;;;;;18.17;2.30;;;;;;;-145.50;100.00;65435.88;4966217;28;20063;-72
2021/03/13 08:46:47;;;;;;;14.85;2.42;;;;;;;-145.50;100.00;65435.88;4938690;28;20179;-73
2021/03/13 08:49:29;;;;;;;11.77;1.92;;;;;;;-145.50;100.00;65435.88;4932574;28;20057;-73
2021/03/13 08:52:05;;;;;;;11.63;1.85;;;;;;;-145.50;100.00;65435.88;4945489;28;20054;-73
2021/03/13 08:54:39;;;;;;;13.25;2.22;;;;;;;-145.50;100.00;65435.88;4957300;28;20058;-73
2021/03/13 08:57:10;;;;;;;17.88;2.30;;;;;;;-145.50;100.00;65435.88;4966031;28;20055;-72
2021/03/13 08:59:39;;;;;;;16.23;2.55;;;;;;;-145.50;100.00;65435.88;4959253;28;20062;-72
2021/03/13 09:02:05;;;;;;;;;;;;;;;-145.50;100.00;65435.88;4939694;28;20059;-73
2021/03/13 09:04:34;;;;;;;14.27;1.80;;;;;;;-145.50;100.00;65435.88;4960709;28;20532;-73
2021/03/13 09:07:02;;;;;;;15.55;2.50;;;;;;;-145.50;100.00;65435.88;4955371;28;20153;-75
2021/03/13 09:09:30;;;;;;;10.98;2.25;;;;;;;-145.50;100.00;65435.88;4965987;28;20054;-72
2021/03/13 09:12:02;;;;;;;15.10;1.88;;;;;;;-145.50;100.00;65435.88;4954821;28;20094;-72
2021/03/13 09:14:29;;;;;;;15.05;2.35;;;;;;;-145.50;100.00;65435.88;4953320;28;20133;-72
2021/03/13 09:16:56;;;;;;;17.38;2.95;;;;;;;-145.50;100.00;65435.88;4958360;28;20422;-73
2021/03/13 09:19:24;;;;;;;15.95;3.08;;;;;;;-145.50;100.00;65435.88;4962315;28;20117;-73
2021/03/13 09:21:56;;;;;;;21.73;2.50;;;;;;;-145.50;100.00;65435.88;4948604;28;20142;-73
2021/03/13 09:24:28;;;;;;;17.90;2.72;;;;;;;-145.50;100.00;65435.88;4956090;28;20054;-72
2021/03/13 09:26:59;;;;;;;14.30;2.50;;;;;;;-145.50;100.00;65435.88;4958380;28;20074;-73
2021/03/13 09:29:27;;;;;;;22.15;3.00;;;;;;;-145.50;100.00;65435.88;4956079;28;20059;-73
2021/03/13 09:32:02;;;;;;;21.17;3.35;;;;;;;-145.50;100.00;65435.88;4963908;28;20160;-72
2021/03/13 09:34:31;;;;;;;16.65;2.42;;;;;;;-145.50;100.00;65435.88;4954481;28;20444;-73
2021/03/13 09:37:18;;;;;;;25.50;3.75;;;;;;;-145.50;100.00;65435.88;4965255;28;20710;-73
2021/03/13 09:40:02;;;;;;;20.45;4.85;;;;;;;-145.50;100.00;65435.88;4936150;28;20153;-73
2021/03/13 09:42:29;;;;;;;22.38;4.07;;;;;;;-145.50;100.00;65435.88;4958748;28;20093;-73
2021/03/13 09:44:58;;;;;;;16.50;2.65;;;;;;;-145.50;100.00;65435.88;4948980;28;20063;-73
2021/03/13 09:47:54;;;;;;;20.15;2.88;;;;;;;-145.50;100.00;65435.88;4965663;28;20886;-72
2021/03/13 09:50:26;;;;;;;19.67;3.28;;;;;;;-145.50;100.00;65435.88;4935557;28;20888;-74
2021/03/13 09:52:52;;;;;;;26.08;3.25;;;;;;;-145.50;100.00;65435.88;4956791;28;20090;-74
2021/03/13 09:55:23;;;;;;;18.02;3.17;;;;;;;-145.50;100.00;65435.88;4943887;28;20145;-74
2021/03/13 09:57:52;;;;;;;17.02;2.65;;;;;;;-145.50;100.00;65435.88;4950304;28;20097;-75
2021/03/13 10:00:25;;;;;;;16.83;3.05;;;;;;;-145.50;100.00;65435.88;4957498;28;20149;-75
2021/03/13 10:02:54;;;;;;;22.58;2.90;;;;;;;-145.50;100.00;65435.88;4952261;28;20114;-75
2021/03/13 10:05:22;;;;;;;13.98;2.40;;;;;;;-145.50;100.00;65435.88;4945861;28;20125;-74
2021/03/13 10:07:50;;;;;;;14.03;2.43;;;;;;;-145.50;100.00;65435.88;4952472;28;20447;-76
2021/03/13 10:10:17;;;;;;;13.68;2.53;;;;;;;-145.50;100.00;65435.88;4961367;28;20598;-76
2021/03/13 10:12:45;;;;;;;13.88;2.97;;;;;;;-145.50;100.00;65435.88;4939048;28;20063;-76
2021/03/13 10:15:20;;;;;;;11.57;2.75;;;;;;;-145.50;100.00;65435.88;4968569;28;20085;-75
2021/03/13 10:17:50;;;;;;;16.05;2.80;;;;;;;-145.50;100.00;65435.88;4959311;28;20059;-75
2021/03/13 10:20:17;;;;;;;16.08;2.92;;;;;;;-145.50;100.00;65435.88;4969279;28;20118;-75
2021/03/13 10:22:43;;;;;;;13.10;2.97;;;;;;;-145.50;100.00;65435.88;4965549;28;20090;-75
2021/03/13 10:25:10;;;;;;;17.15;3.03;;;;;;;-145.50;100.00;65435.88;4935292;28;20868;-75
2021/03/13 10:27:36;;;;;;;18.40;3.58;;;;;;;-145.50;100.00;65435.88;4950756;28;20094;-74
2021/03/13 10:30:05;;;;;;;15.93;3.28;;;;;;;-145.50;100.00;65435.88;4962349;28;20054;-74
2021/03/13 10:32:34;;;;;;;22.58;3.83;;;;;;;-145.50;100.00;65435.88;4967700;28;20063;-72
2021/03/13 10:35:20;;;;;;;22.90;3.75;;;;;;;-145.50;100.00;65435.88;4953740;28;20058;-72
2021/03/13 10:37:55;;;;;;;20.38;5.20;;;;;;;-145.50;100.00;65435.88;4964671;28;20066;-73
2021/03/13 10:40:29;;;;;;;19.52;3.53;;;;;;;-145.50;100.00;65435.88;4956761;28;20549;-73
2021/03/13 10:43:37;;;;;;;23.15;3.65;;;;;;;-145.50;100.00;65435.88;4953701;28;20090;-73
2021/03/13 10:46:16;;;;;;;13.17;3.00;;;;;;;-145.50;100.00;65435.88;4942416;28;20667;-73
2021/03/13 10:48:42;;;;;;;17.55;3.05;;;;;;;-145.50;100.00;65435.88;4967868;28;20130;-75
2021/03/13 10:51:19;;;;;;;14.25;2.63;;;;;;;-145.50;100.00;65435.88;4964904;28;20384;-74
2021/03/13 10:53:45;;;;;;;18.17;2.80;;;;;;;-145.50;100.00;65435.88;4962574;28;20062;-75
2021/03/13 10:56:12;;;;;;;23.58;4.07;;;;;;;-145.50;100.00;65435.88;4967968;28;20062;-75
2021/03/13 10:58:46;;;;;;;21.15;3.72;;;;;;;-145.50;100.00;65435.88;4942992;28;20444;-74
2021/03/13 11:01:13;;;;;;;31.27;5.15;;;;;;;-145.50;100.00;65435.88;4950937;28;20086;-75
2021/03/13 11:03:42;;;;;;;25.95;3.88;;;;;;;-145.50;100.00;65435.88;4951596;28;20133;-75
2021/03/13 11:06:10;;;;;;;26.42;4.10;;;;;;;-145.50;100.00;65435.88;4949917;28;20093;-75
2021/03/13 11:08:36;;;;;;;20.08;3.03;;;;;;;-145.50;100.00;65435.88;4944989;28;20161;-76
2021/03/13 11:11:03;;;;;;;22.90;3.20;;;;;;;-145.50;100.00;65435.88;4968719;28;20077;-75
2021/03/13 11:13:29;;;;;;;15.75;3.05;;;;;;;-145.50;100.00;65435.88;4964373;28;20578;-74
2021/03/13 11:16:14;;;;;;;17.95;2.55;;;;;;;-145.50;100.00;65435.88;4953645;28;20060;-74
2021/03/13 11:18:40;;;;;;;20.58;3.58;;;;;;;-145.50;100.00;65435.88;4944762;29;20055;-74
2021/03/13 11:21:08;;;;;;;26.58;4.80;;;;;;;-145.50;100.00;65435.88;4952111;28;20098;-74